Time,TemperatureF,DewpointF,PressureIn,WindDirection,WindDirectionDegrees,WindSpeedMPH,WindSpeedGustMPH,Humidity,HourlyPrecipIn,Conditions,Clouds,dailyrainin,SolarRadiationWatts/m^2,SoftwareType,DateUTC
2013-11-12 00:02:00,67.0,38.0,-100.00,West,276,0.0,3.0,34,0.00,,,0.00,1.000000,,2013-11-12 07:02:00,
2013-11-12 00:11:00,67.0,38.0,-100.00,West,276,0.0,3.0,34,0.00,,,0.00,1.000000,,2013-11-12 07:11:00,
2013-11-12 00:42:00,67.0,32.0,-100.00,North,8,0.0,4.0,27,0.00,,,0.00,1.000000,,2013-11-12 07:42:00,
2013-11-12 00:52:00,67.0,32.0,-100.00,North,8,0.0,4.0,27,0.00,,,0.00,1.000000,,2013-11-12 07:52:00,
2013-11-12 01:02:00,67.0,32.0,-100.00,North,8,0.0,4.0,27,0.00,,,0.00,1.000000,,2013-11-12 08:02:00,
2013-11-12 01:11:00,67.0,32.0,-100.00,North,8,0.0,4.0,27,0.00,,,0.00,1.000000,,2013-11-12 08:11:00,
2013-11-12 01:42:00,67.0,33.0,-100.00,East,80,5.0,6.0,28,0.00,,,0.00,1.000000,,2013-11-12 08:42:00,
2013-11-12 01:52:00,67.0,33.0,-100.00,East,80,5.0,6.0,28,0.00,,,0.00,1.000000,,2013-11-12 08:52:00,
2013-11-12 02:02:00,67.0,33.0,-100.00,East,80,5.0,6.0,28,0.00,,,0.00,1.000000,,2013-11-12 09:02:00,
2013-11-12 02:11:00,67.0,33.0,-100.00,East,80,5.0,6.0,28,0.00,,,0.00,1.000000,,2013-11-12 09:11:00,
2013-11-12 02:42:00,71.0,28.0,-100.00,NNE,20,6.0,8.0,20,0.00,,,0.00,1.000000,,2013-11-12 09:42:00,
2013-11-12 02:53:00,71.0,28.0,-100.00,NNE,20,6.0,8.0,20,0.00,,,0.00,1.000000,,2013-11-12 09:53:00,
2013-11-12 03:03:00,71.0,28.0,-100.00,NNE,20,6.0,8.0,20,0.00,,,0.00,1.000000,,2013-11-12 10:03:00,
2013-11-12 03:12:00,71.0,28.0,-100.00,NNE,20,6.0,8.0,20,0.00,,,0.00,1.000000,,2013-11-12 10:12:00,
2013-11-12 03:53:00,72.0,27.0,-100.00,North,9,0.0,8.0,19,0.00,,,0.00,1.000000,,2013-11-12 10:53:00,
2013-11-12 04:02:00,72.0,27.0,-100.00,North,9,0.0,8.0,19,0.00,,,0.00,1.000000,,2013-11-12 11:02:00,
2013-11-12 04:12:00,72.0,27.0,-100.00,North,9,0.0,8.0,19,0.00,,,0.00,1.000000,,2013-11-12 11:12:00,
2013-11-12 05:42:00,74.0,26.0,-100.00,NNE,15,0.0,0.0,17,-99.99,,,0.00,1.000000,,2013-11-12 12:42:00,
2013-11-12 05:52:00,74.0,26.0,-100.00,NNE,15,0.0,0.0,17,-99.99,,,0.00,1.000000,,2013-11-12 12:52:00,
2013-11-12 06:01:00,74.0,26.0,-100.00,NNE,15,0.0,0.0,17,-99.99,,,0.00,1.000000,,2013-11-12 13:01:00,
2013-11-12 06:11:00,74.0,26.0,-100.00,NNE,15,0.0,0.0,17,-99.99,,,0.00,1.000000,,2013-11-12 13:11:00,
2013-11-12 06:42:00,73.0,26.0,-100.00,NNE,19,0.0,0.0,17,0.00,,,0.00,1.000000,,2013-11-12 13:42:00,
2013-11-12 06:52:00,73.0,26.0,-100.00,NNE,19,0.0,0.0,17,0.00,,,0.00,1.000000,,2013-11-12 13:52:00,
2013-11-12 07:02:00,73.0,26.0,-100.00,NNE,19,0.0,0.0,17,0.00,,,0.00,1.000000,,2013-11-12 14:02:00,
2013-11-12 07:11:00,73.0,26.0,-100.00,NNE,19,0.0,0.0,17,0.00,,,0.00,1.000000,,2013-11-12 14:11:00,
2013-11-12 07:42:00,68.0,29.0,-100.00,NE,46,0.0,0.0,23,0.00,,,0.00,5.000000,,2013-11-12 14:42:00,
2013-11-12 07:52:00,68.0,29.0,-100.00,NE,46,0.0,0.0,23,0.00,,,0.00,5.000000,,2013-11-12 14:52:00,
2013-11-12 08:02:00,68.0,29.0,-100.00,NE,46,0.0,0.0,23,0.00,,,0.00,5.000000,,2013-11-12 15:02:00,
2013-11-12 08:11:00,68.0,29.0,-100.00,NE,46,0.0,0.0,23,0.00,,,0.00,5.000000,,2013-11-12 15:11:00,
2013-11-12 08:44:00,69.0,34.0,-100.00,SSW,206,0.0,0.0,27,0.00,,,0.00,96.000000,,2013-11-12 15:44:00,
2013-11-12 08:53:00,69.0,34.0,-100.00,SSW,206,0.0,0.0,27,0.00,,,0.00,96.000000,,2013-11-12 15:53:00,
2013-11-12 09:03:00,69.0,34.0,-100.00,SSW,206,0.0,0.0,27,0.00,,,0.00,96.000000,,2013-11-12 16:03:00,
2013-11-12 09:12:00,69.0,34.0,-100.00,SSW,206,0.0,0.0,27,0.00,,,0.00,96.000000,,2013-11-12 16:12:00,
2013-11-12 09:42:00,77.0,27.0,-100.00,NNE,26,0.0,0.0,16,0.00,,,0.00,246.000000,,2013-11-12 16:42:00,
2013-11-12 09:53:00,77.0,27.0,-100.00,NNE,26,0.0,0.0,16,0.00,,,0.00,246.000000,,2013-11-12 16:53:00,
2013-11-12 10:02:00,77.0,27.0,-100.00,NNE,26,0.0,0.0,16,0.00,,,0.00,246.000000,,2013-11-12 17:02:00,
2013-11-12 10:12:00,77.0,27.0,-100.00,NNE,26,0.0,0.0,16,0.00,,,0.00,246.000000,,2013-11-12 17:12:00,
2013-11-12 10:42:00,81.0,35.0,-100.00,NE,42,4.0,9.0,19,0.00,,,0.00,464.000000,,2013-11-12 17:42:00,
2013-11-12 10:52:00,81.0,35.0,-100.00,NE,42,4.0,9.0,19,0.00,,,0.00,464.000000,,2013-11-12 17:52:00,
2013-11-12 11:01:00,81.0,35.0,-100.00,NE,42,4.0,9.0,19,0.00,,,0.00,464.000000,,2013-11-12 18:01:00,
2013-11-12 11:12:00,81.0,35.0,-100.00,NE,42,4.0,9.0,19,0.00,,,0.00,464.000000,,2013-11-12 18:12:00,
2013-11-12 11:42:00,85.0,29.0,-100.00,NNE,16,10.0,15.0,13,0.00,,,0.00,593.000000,,2013-11-12 18:42:00,
2013-11-12 11:52:00,85.0,29.0,-100.00,NNE,16,10.0,15.0,13,0.00,,,0.00,593.000000,,2013-11-12 18:52:00,
2013-11-12 12:01:00,85.0,29.0,-100.00,NNE,16,10.0,15.0,13,0.00,,,0.00,593.000000,,2013-11-12 19:01:00,
2013-11-12 12:11:00,85.0,29.0,-100.00,NNE,16,10.0,15.0,13,0.00,,,0.00,593.000000,,2013-11-12 19:11:00,
2013-11-12 12:42:00,87.0,30.0,-100.00,North,3,8.0,14.0,13,0.00,,,0.00,620.000000,,2013-11-12 19:42:00,
2013-11-12 12:52:00,87.0,30.0,-100.00,North,3,8.0,14.0,13,0.00,,,0.00,620.000000,,2013-11-12 19:52:00,
2013-11-12 13:01:00,87.0,30.0,-100.00,North,3,8.0,14.0,13,0.00,,,0.00,620.000000,,2013-11-12 20:01:00,
2013-11-12 13:11:00,87.0,30.0,-100.00,North,3,8.0,14.0,13,0.00,,,0.00,620.000000,,2013-11-12 20:11:00,
2013-11-12 13:42:00,89.0,28.0,-100.00,NNW,345,9.0,13.0,11,0.00,,,0.00,613.000000,,2013-11-12 20:42:00,
2013-11-12 13:52:00,89.0,28.0,-100.00,NNW,345,9.0,13.0,11,0.00,,,0.00,613.000000,,2013-11-12 20:52:00,
2013-11-12 14:02:00,89.0,28.0,-100.00,NNW,345,9.0,13.0,11,0.00,,,0.00,613.000000,,2013-11-12 21:02:00,
2013-11-12 14:12:00,89.0,28.0,-100.00,NNW,345,9.0,13.0,11,0.00,,,0.00,613.000000,,2013-11-12 21:12:00,
2013-11-12 14:44:00,90.0,31.0,-100.00,NNW,341,9.0,15.0,12,0.00,,,0.00,516.000000,,2013-11-12 21:44:00,
2013-11-12 14:54:00,90.0,31.0,-100.00,NNW,341,9.0,15.0,12,0.00,,,0.00,516.000000,,2013-11-12 21:54:00,
2013-11-12 15:04:00,90.0,31.0,-100.00,NNW,341,9.0,15.0,12,0.00,,,0.00,516.000000,,2013-11-12 22:04:00,
2013-11-12 15:14:00,90.0,31.0,-100.00,NNW,341,9.0,15.0,12,0.00,,,0.00,516.000000,,2013-11-12 22:14:00,
2013-11-12 15:54:00,88.0,31.0,-100.00,NNW,346,8.0,16.0,13,0.00,,,0.00,333.000000,,2013-11-12 22:54:00,
2013-11-12 16:03:00,88.0,31.0,-100.00,NNW,346,8.0,16.0,13,0.00,,,0.00,333.000000,,2013-11-12 23:03:00,
2013-11-12 16:11:00,88.0,31.0,-100.00,NNW,346,8.0,16.0,13,0.00,,,0.00,333.000000,,2013-11-12 23:11:00,
2013-11-12 16:42:00,86.0,27.0,-100.00,North,358,10.0,15.0,12,0.00,,,0.00,200.000000,,2013-11-12 23:42:00,
2013-11-12 16:54:00,86.0,27.0,-100.00,North,358,10.0,15.0,12,0.00,,,0.00,200.000000,,2013-11-12 23:54:00,
2013-11-12 17:02:00,86.0,27.0,-100.00,North,358,10.0,15.0,12,0.00,,,0.00,200.000000,,2013-11-13 00:02:00,
2013-11-12 17:11:00,86.0,27.0,-100.00,North,358,10.0,15.0,12,0.00,,,0.00,200.000000,,2013-11-13 00:11:00,
2013-11-12 17:42:00,84.0,28.0,-100.00,North,355,9.0,14.0,13,0.00,,,0.00,66.000000,,2013-11-13 00:42:00,
2013-11-12 17:52:00,84.0,28.0,-100.00,North,355,9.0,14.0,13,0.00,,,0.00,66.000000,,2013-11-13 00:52:00,
2013-11-12 18:01:00,84.0,28.0,-100.00,North,355,9.0,14.0,13,0.00,,,0.00,66.000000,,2013-11-13 01:01:00,
2013-11-12 18:11:00,84.0,28.0,-100.00,North,355,9.0,14.0,13,0.00,,,0.00,66.000000,,2013-11-13 01:11:00,
2013-11-12 18:42:00,83.0,29.0,-100.00,NNW,343,6.0,11.0,14,0.00,,,0.00,5.000000,,2013-11-13 01:42:00,
2013-11-12 18:52:00,83.0,29.0,-100.00,NNW,343,6.0,11.0,14,0.00,,,0.00,5.000000,,2013-11-13 01:52:00,
2013-11-12 19:01:00,83.0,29.0,-100.00,NNW,343,6.0,11.0,14,0.00,,,0.00,5.000000,,2013-11-13 02:01:00,
2013-11-12 19:11:00,83.0,29.0,-100.00,NNW,343,6.0,11.0,14,0.00,,,0.00,5.000000,,2013-11-13 02:11:00,
2013-11-12 19:42:00,82.0,28.0,-100.00,NNE,12,7.0,12.0,14,0.00,,,0.00,1.000000,,2013-11-13 02:42:00,
2013-11-12 19:52:00,82.0,28.0,-100.00,NNE,12,7.0,12.0,14,0.00,,,0.00,1.000000,,2013-11-13 02:52:00,
2013-11-12 20:02:00,82.0,28.0,-100.00,NNE,12,7.0,12.0,14,0.00,,,0.00,1.000000,,2013-11-13 03:02:00,
2013-11-12 20:11:00,82.0,28.0,-100.00,NNE,12,7.0,12.0,14,0.00,,,0.00,1.000000,,2013-11-13 03:11:00,
2013-11-12 20:45:00,81.0,27.0,-100.00,NNE,20,5.0,12.0,14,0.00,,,0.00,1.000000,,2013-11-13 03:45:00,
2013-11-12 20:54:00,81.0,27.0,-100.00,NNE,20,5.0,12.0,14,0.00,,,0.00,1.000000,,2013-11-13 03:54:00,
2013-11-12 21:04:00,81.0,27.0,-100.00,NNE,20,5.0,12.0,14,0.00,,,0.00,1.000000,,2013-11-13 04:04:00,
2013-11-12 21:14:00,81.0,27.0,-100.00,NNE,20,5.0,12.0,14,0.00,,,0.00,1.000000,,2013-11-13 04:14:00,
2013-11-12 21:43:00,80.0,28.0,-100.00,NNE,30,0.0,9.0,15,0.00,,,0.00,1.000000,,2013-11-13 04:43:00,
2013-11-12 21:53:00,80.0,28.0,-100.00,NNE,30,0.0,9.0,15,0.00,,,0.00,1.000000,,2013-11-13 04:53:00,
2013-11-12 22:03:00,80.0,28.0,-100.00,NNE,30,0.0,9.0,15,0.00,,,0.00,1.000000,,2013-11-13 05:03:00,
2013-11-12 22:13:00,80.0,28.0,-100.00,NNE,30,0.0,9.0,15,0.00,,,0.00,1.000000,,2013-11-13 05:13:00,
2013-11-12 22:43:00,75.0,35.0,-100.00,West,263,0.0,0.0,23,0.00,,,0.00,1.000000,,2013-11-13 05:43:00,
2013-11-12 22:53:00,75.0,35.0,-100.00,West,263,0.0,0.0,23,0.00,,,0.00,1.000000,,2013-11-13 05:53:00,
2013-11-12 23:03:00,75.0,35.0,-100.00,West,263,0.0,0.0,23,0.00,,,0.00,1.000000,,2013-11-13 06:03:00,
2013-11-12 23:13:00,75.0,35.0,-100.00,West,263,0.0,0.0,23,0.00,,,0.00,1.000000,,2013-11-13 06:13:00,
2013-11-12 23:42:00,78.0,27.0,-100.00,NNW,344,5.0,8.0,15,0.00,,,-99.99,1.000000,,2013-11-13 06:42:00,
2013-11-12 23:52:00,78.0,27.0,-100.00,NNW,344,5.0,8.0,15,0.00,,,-99.99,1.000000,,2013-11-13 06:52:00,